sensor_id;sensor_type;location;lat;lon;timestamp;P1;durP1;ratioP1;P2;durP2;ratioP2
2257;SDS011;1136;51.574;7.706;2023-03-01T00:01:09;17.03;;;13.13;;
2257;SDS011;1136;51.574;7.706;2023-03-01T00:03:37;20.20;;;12.50;;
2257;SDS011;1136;51.574;7.706;2023-03-01T00:06:04;18.10;;;12.63;;
2257;SDS011;1136;51.574;7.706;2023-03-01T00:08:31;15.90;;;11.97;;
2257;SDS011;1136;51.574;7.706;2023-03-01T00:11:03;17.53;;;12.70;;
2257;SDS011;1136;51.574;7.706;2023-03-01T00:13:31;18.33;;;12.63;;
2257;SDS011;1136;51.574;7.706;2023-03-01T00:15:57;15.50;;;12.50;;
2257;SDS011;1136;51.574;7.706;2023-03-01T00:18:24;17.23;;;14.00;;
2257;SDS011;1136;51.574;7.706;2023-03-01T00:20:51;18.17;;;13.40;;
2257;SDS011;1136;51.574;7.706;2023-03-01T00:23:19;14.87;;;12.30;;
2257;SDS011;1136;51.574;7.706;2023-03-01T00:25:46;17.10;;;11.40;;
2257;SDS011;1136;51.574;7.706;2023-03-01T00:28:13;16.83;;;12.50;;
2257;SDS011;1136;51.574;7.706;2023-03-01T00:30:40;17.73;;;12.37;;
2257;SDS011;1136;51.574;7.706;2023-03-01T00:33:07;14.73;;;11.63;;
2257;SDS011;1136;51.574;7.706;2023-03-01T00:35:34;16.97;;;12.37;;
2257;SDS011;1136;51.574;7.706;2023-03-01T00:38:01;14.60;;;11.60;;
2257;SDS011;1136;51.574;7.706;2023-03-01T00:40:29;13.33;;;11.93;;
2257;SDS011;1136;51.574;7.706;2023-03-01T00:42:56;12.00;;;10.47;;
2257;SDS011;1136;51.574;7.706;2023-03-01T00:45:23;13.13;;;11.73;;
2257;SDS011;1136;51.574;7.706;2023-03-01T00:47:50;14.33;;;11.90;;
2257;SDS011;1136;51.574;7.706;2023-03-01T00:50:17;13.27;;;11.67;;
2257;SDS011;1136;51.574;7.706;2023-03-01T00:52:44;12.17;;;10.90;;
2257;SDS011;1136;51.574;7.706;2023-03-01T00:55:11;13.60;;;11.07;;
2257;SDS011;1136;51.574;7.706;2023-03-01T00:57:38;10.70;;;9.60;;
2257;SDS011;1136;51.574;7.706;2023-03-01T01:00:05;12.53;;;10.50;;
2257;SDS011;1136;51.574;7.706;2023-03-01T01:02:33;13.43;;;10.13;;
2257;SDS011;1136;51.574;7.706;2023-03-01T01:05:00;14.57;;;11.40;;
2257;SDS011;1136;51.574;7.706;2023-03-01T01:07:27;13.87;;;10.77;;
2257;SDS011;1136;51.574;7.706;2023-03-01T01:09:53;11.07;;;9.70;;
2257;SDS011;1136;51.574;7.706;2023-03-01T01:12:21;12.77;;;11.33;;
2257;SDS011;1136;51.574;7.706;2023-03-01T01:14:47;12.13;;;10.40;;
2257;SDS011;1136;51.574;7.706;2023-03-01T01:17:14;13.60;;;11.20;;
2257;SDS011;1136;51.574;7.706;2023-03-01T01:19:41;15.33;;;11.33;;
2257;SDS011;1136;51.574;7.706;2023-03-01T01:22:07;13.73;;;10.63;;
2257;SDS011;1136;51.574;7.706;2023-03-01T01:24:34;13.27;;;11.07;;
2257;SDS011;1136;51.574;7.706;2023-03-01T01:27:01;15.13;;;11.43;;
2257;SDS011;1136;51.574;7.706;2023-03-01T01:29:27;16.13;;;12.70;;
2257;SDS011;1136;51.574;7.706;2023-03-01T01:31:55;14.97;;;12.00;;
2257;SDS011;1136;51.574;7.706;2023-03-01T01:34:21;14.73;;;11.80;;
2257;SDS011;1136;51.574;7.706;2023-03-01T01:36:51;14.47;;;11.20;;
2257;SDS011;1136;51.574;7.706;2023-03-01T01:39:22;13.97;;;11.27;;
2257;SDS011;1136;51.574;7.706;2023-03-01T01:41:48;16.93;;;12.97;;
2257;SDS011;1136;51.574;7.706;2023-03-01T01:47:38;16.03;;;11.27;;
2257;SDS011;1136;51.574;7.706;2023-03-01T01:52:18;16.87;;;11.90;;
2257;SDS011;1136;51.574;7.706;2023-03-01T01:57:27;16.67;;;13.67;;
2257;SDS011;1136;51.574;7.706;2023-03-01T02:00:00;19.07;;;12.63;;
2257;SDS011;1136;51.574;7.706;2023-03-01T02:02:36;15.77;;;11.47;;
2257;SDS011;1136;51.574;7.706;2023-03-01T02:07:59;15.83;;;12.80;;
2257;SDS011;1136;51.574;7.706;2023-03-01T02:10:26;14.77;;;11.33;;
2257;SDS011;1136;51.574;7.706;2023-03-01T02:12:54;16.43;;;12.30;;
2257;SDS011;1136;51.574;7.706;2023-03-01T02:15:22;15.40;;;11.90;;
2257;SDS011;1136;51.574;7.706;2023-03-01T02:17:50;20.23;;;12.13;;
2257;SDS011;1136;51.574;7.706;2023-03-01T02:20:26;17.00;;;12.57;;
2257;SDS011;1136;51.574;7.706;2023-03-01T02:22:59;12.50;;;10.63;;
2257;SDS011;1136;51.574;7.706;2023-03-01T02:25:38;14.80;;;11.87;;
2257;SDS011;1136;51.574;7.706;2023-03-01T02:30:42;13.13;;;10.60;;
2257;SDS011;1136;51.574;7.706;2023-03-01T02:33:29;11.30;;;10.10;;
2257;SDS011;1136;51.574;7.706;2023-03-01T02:39:03;10.67;;;9.57;;
2257;SDS011;1136;51.574;7.706;2023-03-01T02:41:35;11.00;;;9.90;;
2257;SDS011;1136;51.574;7.706;2023-03-01T02:44:03;12.40;;;9.77;;
2257;SDS011;1136;51.574;7.706;2023-03-01T02:46:30;12.70;;;11.17;;
2257;SDS011;1136;51.574;7.706;2023-03-01T02:48:57;12.27;;;9.83;;
2257;SDS011;1136;51.574;7.706;2023-03-01T02:51:39;12.03;;;9.67;;
2257;SDS011;1136;51.574;7.706;2023-03-01T02:54:10;10.03;;;8.97;;
2257;SDS011;1136;51.574;7.706;2023-03-01T02:56:42;14.77;;;9.47;;
2257;SDS011;1136;51.574;7.706;2023-03-01T02:59:09;12.17;;;9.60;;
2257;SDS011;1136;51.574;7.706;2023-03-01T03:01:36;11.03;;;10.00;;
2257;SDS011;1136;51.574;7.706;2023-03-01T03:04:04;11.80;;;10.33;;
2257;SDS011;1136;51.574;7.706;2023-03-01T03:06:32;12.23;;;9.53;;
2257;SDS011;1136;51.574;7.706;2023-03-01T03:08:59;10.87;;;9.67;;
2257;SDS011;1136;51.574;7.706;2023-03-01T03:11:26;12.03;;;9.90;;
2257;SDS011;1136;51.574;7.706;2023-03-01T03:13:53;12.13;;;10.03;;
2257;SDS011;1136;51.574;7.706;2023-03-01T03:16:20;12.47;;;9.37;;
2257;SDS011;1136;51.574;7.706;2023-03-01T03:18:47;11.43;;;10.10;;
2257;SDS011;1136;51.574;7.706;2023-03-01T03:21:14;11.13;;;9.80;;
2257;SDS011;1136;51.574;7.706;2023-03-01T03:23:43;16.90;;;11.50;;
2257;SDS011;1136;51.574;7.706;2023-03-01T03:26:10;12.83;;;11.23;;
2257;SDS011;1136;51.574;7.706;2023-03-01T03:28:39;11.83;;;10.20;;
2257;SDS011;1136;51.574;7.706;2023-03-01T03:31:06;14.27;;;10.80;;
2257;SDS011;1136;51.574;7.706;2023-03-01T03:33:34;16.80;;;13.07;;
2257;SDS011;1136;51.574;7.706;2023-03-01T03:36:01;15.83;;;11.10;;
2257;SDS011;1136;51.574;7.706;2023-03-01T03:38:28;15.70;;;11.33;;
2257;SDS011;1136;51.574;7.706;2023-03-01T03:41:12;13.50;;;10.73;;
2257;SDS011;1136;51.574;7.706;2023-03-01T03:43:40;12.60;;;10.83;;
2257;SDS011;1136;51.574;7.706;2023-03-01T03:46:09;13.97;;;9.87;;
2257;SDS011;1136;51.574;7.706;2023-03-01T03:48:38;11.60;;;10.27;;
2257;SDS011;1136;51.574;7.706;2023-03-01T03:51:06;14.13;;;10.47;;
2257;SDS011;1136;51.574;7.706;2023-03-01T03:53:33;13.10;;;11.03;;
2257;SDS011;1136;51.574;7.706;2023-03-01T03:56:00;12.03;;;10.57;;
2257;SDS011;1136;51.574;7.706;2023-03-01T03:58:26;10.97;;;9.87;;
2257;SDS011;1136;51.574;7.706;2023-03-01T04:00:54;14.43;;;11.10;;
2257;SDS011;1136;51.574;7.706;2023-03-01T04:03:23;11.40;;;10.17;;
2257;SDS011;1136;51.574;7.706;2023-03-01T04:05:51;17.23;;;10.03;;
2257;SDS011;1136;51.574;7.706;2023-03-01T04:08:19;14.43;;;10.23;;
2257;SDS011;1136;51.574;7.706;2023-03-01T04:10:48;13.93;;;10.80;;
2257;SDS011;1136;51.574;7.706;2023-03-01T04:13:19;13.60;;;10.70;;
2257;SDS011;1136;51.574;7.706;2023-03-01T04:15:51;15.20;;;11.17;;
2257;SDS011;1136;51.574;7.706;2023-03-01T04:18:20;16.07;;;11.20;;
2257;SDS011;1136;51.574;7.706;2023-03-01T04:20:48;13.00;;;11.23;;
2257;SDS011;1136;51.574;7.706;2023-03-01T04:23:18;13.10;;;10.77;;
2257;SDS011;1136;51.574;7.706;2023-03-01T04:25:52;11.90;;;9.87;;
2257;SDS011;1136;51.574;7.706;2023-03-01T04:28:23;13.60;;;9.93;;
2257;SDS011;1136;51.574;7.706;2023-03-01T04:31:05;14.37;;;11.23;;
2257;SDS011;1136;51.574;7.706;2023-03-01T04:34:01;14.00;;;10.50;;
2257;SDS011;1136;51.574;7.706;2023-03-01T04:36:27;13.37;;;10.23;;
2257;SDS011;1136;51.574;7.706;2023-03-01T04:38:56;11.37;;;9.63;;
2257;SDS011;1136;51.574;7.706;2023-03-01T04:41:23;13.97;;;11.17;;
2257;SDS011;1136;51.574;7.706;2023-03-01T04:43:50;14.40;;;11.27;;
2257;SDS011;1136;51.574;7.706;2023-03-01T04:46:18;12.33;;;11.10;;
2257;SDS011;1136;51.574;7.706;2023-03-01T04:48:46;13.47;;;10.60;;
2257;SDS011;1136;51.574;7.706;2023-03-01T04:51:16;12.57;;;10.90;;
2257;SDS011;1136;51.574;7.706;2023-03-01T04:53:43;14.70;;;12.87;;
2257;SDS011;1136;51.574;7.706;2023-03-01T04:56:10;17.33;;;11.17;;
2257;SDS011;1136;51.574;7.706;2023-03-01T04:58:36;14.40;;;11.63;;
2257;SDS011;1136;51.574;7.706;2023-03-01T05:01:16;13.67;;;11.60;;
2257;SDS011;1136;51.574;7.706;2023-03-01T05:03:48;22.67;;;12.70;;
2257;SDS011;1136;51.574;7.706;2023-03-01T05:06:17;16.83;;;12.17;;
2257;SDS011;1136;51.574;7.706;2023-03-01T05:08:44;16.10;;;12.03;;
2257;SDS011;1136;51.574;7.706;2023-03-01T05:11:11;16.70;;;11.47;;
2257;SDS011;1136;51.574;7.706;2023-03-01T05:13:38;18.43;;;12.70;;
2257;SDS011;1136;51.574;7.706;2023-03-01T05:16:06;15.27;;;12.10;;
2257;SDS011;1136;51.574;7.706;2023-03-01T05:18:38;19.10;;;13.30;;
2257;SDS011;1136;51.574;7.706;2023-03-01T05:21:06;16.40;;;12.60;;
2257;SDS011;1136;51.574;7.706;2023-03-01T05:23:34;18.07;;;13.50;;
2257;SDS011;1136;51.574;7.706;2023-03-01T05:26:02;16.97;;;13.67;;
2257;SDS011;1136;51.574;7.706;2023-03-01T05:28:32;20.13;;;13.17;;
2257;SDS011;1136;51.574;7.706;2023-03-01T05:31:00;16.63;;;12.80;;
2257;SDS011;1136;51.574;7.706;2023-03-01T05:33:27;19.20;;;14.13;;
2257;SDS011;1136;51.574;7.706;2023-03-01T05:35:54;19.77;;;14.57;;
2257;SDS011;1136;51.574;7.706;2023-03-01T05:38:21;20.60;;;13.40;;
2257;SDS011;1136;51.574;7.706;2023-03-01T05:40:48;21.13;;;14.33;;
2257;SDS011;1136;51.574;7.706;2023-03-01T05:43:16;23.17;;;14.27;;
2257;SDS011;1136;51.574;7.706;2023-03-01T05:45:43;19.17;;;12.93;;
2257;SDS011;1136;51.574;7.706;2023-03-01T05:48:10;17.63;;;13.00;;
2257;SDS011;1136;51.574;7.706;2023-03-01T05:50:44;20.80;;;13.50;;
2257;SDS011;1136;51.574;7.706;2023-03-01T05:53:16;18.57;;;12.60;;
2257;SDS011;1136;51.574;7.706;2023-03-01T05:55:43;18.77;;;12.43;;
2257;SDS011;1136;51.574;7.706;2023-03-01T05:58:11;18.13;;;13.37;;
2257;SDS011;1136;51.574;7.706;2023-03-01T06:00:40;20.57;;;13.30;;
2257;SDS011;1136;51.574;7.706;2023-03-01T06:03:08;23.83;;;13.67;;
2257;SDS011;1136;51.574;7.706;2023-03-01T06:05:36;13.93;;;11.60;;
2257;SDS011;1136;51.574;7.706;2023-03-01T06:08:03;17.20;;;12.37;;
2257;SDS011;1136;51.574;7.706;2023-03-01T06:10:30;16.50;;;13.07;;
2257;SDS011;1136;51.574;7.706;2023-03-01T06:12:57;15.90;;;12.83;;
2257;SDS011;1136;51.574;7.706;2023-03-01T06:15:24;18.60;;;12.60;;
2257;SDS011;1136;51.574;7.706;2023-03-01T06:17:53;17.00;;;13.50;;
2257;SDS011;1136;51.574;7.706;2023-03-01T06:20:24;20.07;;;13.73;;
2257;SDS011;1136;51.574;7.706;2023-03-01T06:22:51;18.70;;;12.77;;
2257;SDS011;1136;51.574;7.706;2023-03-01T06:25:20;19.73;;;14.43;;
2257;SDS011;1136;51.574;7.706;2023-03-01T06:27:48;19.07;;;13.93;;
2257;SDS011;1136;51.574;7.706;2023-03-01T06:30:16;20.33;;;14.00;;
2257;SDS011;1136;51.574;7.706;2023-03-01T06:32:44;16.37;;;13.90;;
2257;SDS011;1136;51.574;7.706;2023-03-01T06:35:11;19.13;;;13.83;;
2257;SDS011;1136;51.574;7.706;2023-03-01T06:37:40;19.00;;;13.67;;
2257;SDS011;1136;51.574;7.706;2023-03-01T06:40:07;23.73;;;14.60;;
2257;SDS011;1136;51.574;7.706;2023-03-01T06:42:35;19.90;;;14.10;;
2257;SDS011;1136;51.574;7.706;2023-03-01T06:45:02;18.30;;;12.60;;
2257;SDS011;1136;51.574;7.706;2023-03-01T06:47:30;15.63;;;13.60;;
2257;SDS011;1136;51.574;7.706;2023-03-01T06:49:57;22.27;;;13.80;;
2257;SDS011;1136;51.574;7.706;2023-03-01T06:52:23;24.90;;;14.77;;
2257;SDS011;1136;51.574;7.706;2023-03-01T06:54:50;19.73;;;13.40;;
2257;SDS011;1136;51.574;7.706;2023-03-01T06:57:16;18.30;;;13.47;;
2257;SDS011;1136;51.574;7.706;2023-03-01T06:59:43;17.43;;;12.77;;
2257;SDS011;1136;51.574;7.706;2023-03-01T07:02:10;20.67;;;14.40;;
2257;SDS011;1136;51.574;7.706;2023-03-01T07:04:38;19.43;;;14.10;;
2257;SDS011;1136;51.574;7.706;2023-03-01T07:07:05;16.23;;;12.20;;
2257;SDS011;1136;51.574;7.706;2023-03-01T07:09:32;21.53;;;14.67;;
2257;SDS011;1136;51.574;7.706;2023-03-01T07:11:58;21.03;;;15.00;;
2257;SDS011;1136;51.574;7.706;2023-03-01T07:14:25;19.40;;;13.73;;
2257;SDS011;1136;51.574;7.706;2023-03-01T07:16:52;17.30;;;13.50;;
2257;SDS011;1136;51.574;7.706;2023-03-01T07:19:19;17.77;;;12.60;;
2257;SDS011;1136;51.574;7.706;2023-03-01T07:21:46;32.10;;;12.80;;
2257;SDS011;1136;51.574;7.706;2023-03-01T07:24:13;15.80;;;13.27;;
2257;SDS011;1136;51.574;7.706;2023-03-01T07:26:40;22.10;;;13.90;;
2257;SDS011;1136;51.574;7.706;2023-03-01T07:29:07;22.63;;;14.10;;
2257;SDS011;1136;51.574;7.706;2023-03-01T07:31:36;16.20;;;12.83;;
2257;SDS011;1136;51.574;7.706;2023-03-01T07:34:02;22.30;;;14.13;;
2257;SDS011;1136;51.574;7.706;2023-03-01T07:36:29;19.83;;;13.23;;
2257;SDS011;1136;51.574;7.706;2023-03-01T07:38:56;17.73;;;12.27;;
2257;SDS011;1136;51.574;7.706;2023-03-01T07:41:24;21.33;;;12.07;;
2257;SDS011;1136;51.574;7.706;2023-03-01T07:43:50;17.20;;;11.70;;
2257;SDS011;1136;51.574;7.706;2023-03-01T07:46:17;16.23;;;13.00;;
2257;SDS011;1136;51.574;7.706;2023-03-01T07:48:45;18.93;;;11.47;;
2257;SDS011;1136;51.574;7.706;2023-03-01T07:51:12;19.43;;;12.90;;
2257;SDS011;1136;51.574;7.706;2023-03-01T07:53:39;18.70;;;12.50;;
2257;SDS011;1136;51.574;7.706;2023-03-01T07:56:10;15.47;;;11.80;;
2257;SDS011;1136;51.574;7.706;2023-03-01T07:58:39;21.67;;;12.13;;
2257;SDS011;1136;51.574;7.706;2023-03-01T08:01:26;17.87;;;11.33;;
2257;SDS011;1136;51.574;7.706;2023-03-01T08:03:59;14.30;;;11.40;;
2257;SDS011;1136;51.574;7.706;2023-03-01T08:06:26;18.43;;;11.47;;
2257;SDS011;1136;51.574;7.706;2023-03-01T08:08:53;13.90;;;10.93;;
2257;SDS011;1136;51.574;7.706;2023-03-01T08:11:24;14.87;;;9.97;;
2257;SDS011;1136;51.574;7.706;2023-03-01T08:13:51;13.20;;;11.10;;
2257;SDS011;1136;51.574;7.706;2023-03-01T08:16:19;15.83;;;11.33;;
2257;SDS011;1136;51.574;7.706;2023-03-01T08:18:45;12.50;;;11.30;;
2257;SDS011;1136;51.574;7.706;2023-03-01T08:21:13;11.27;;;9.90;;
2257;SDS011;1136;51.574;7.706;2023-03-01T08:23:42;10.13;;;9.13;;
2257;SDS011;1136;51.574;7.706;2023-03-01T08:26:10;10.73;;;9.40;;
2257;SDS011;1136;51.574;7.706;2023-03-01T08:28:38;13.90;;;9.30;;
2257;SDS011;1136;51.574;7.706;2023-03-01T08:31:48;13.60;;;9.50;;
2257;SDS011;1136;51.574;7.706;2023-03-01T08:33:58;9.60;;;8.63;;
2257;SDS011;1136;51.574;7.706;2023-03-01T08:36:29;11.90;;;8.70;;
2257;SDS011;1136;51.574;7.706;2023-03-01T08:38:59;10.60;;;9.50;;
2257;SDS011;1136;51.574;7.706;2023-03-01T08:41:26;12.27;;;8.97;;
2257;SDS011;1136;51.574;7.706;2023-03-01T08:43:53;10.77;;;9.17;;
2257;SDS011;1136;51.574;7.706;2023-03-01T08:46:25;9.83;;;8.17;;
2257;SDS011;1136;51.574;7.706;2023-03-01T08:48:52;10.43;;;8.70;;
2257;SDS011;1136;51.574;7.706;2023-03-01T08:51:19;12.07;;;9.87;;
2257;SDS011;1136;51.574;7.706;2023-03-01T08:53:47;10.57;;;9.47;;
2257;SDS011;1136;51.574;7.706;2023-03-01T08:56:14;12.40;;;8.50;;
2257;SDS011;1136;51.574;7.706;2023-03-01T08:58:45;10.27;;;8.97;;
2257;SDS011;1136;51.574;7.706;2023-03-01T09:01:14;11.60;;;8.73;;
2257;SDS011;1136;51.574;7.706;2023-03-01T09:03:43;18.03;;;9.63;;
2257;SDS011;1136;51.574;7.706;2023-03-01T09:06:10;14.90;;;8.60;;
2257;SDS011;1136;51.574;7.706;2023-03-01T09:08:38;10.60;;;8.30;;
2257;SDS011;1136;51.574;7.706;2023-03-01T09:11:07;9.60;;;7.60;;
2257;SDS011;1136;51.574;7.706;2023-03-01T09:13:35;9.30;;;8.33;;
2257;SDS011;1136;51.574;7.706;2023-03-01T09:16:02;9.20;;;8.30;;
2257;SDS011;1136;51.574;7.706;2023-03-01T09:18:30;10.37;;;8.80;;
2257;SDS011;1136;51.574;7.706;2023-03-01T09:21:01;9.57;;;7.60;;
2257;SDS011;1136;51.574;7.706;2023-03-01T09:23:39;9.20;;;8.03;;
2257;SDS011;1136;51.574;7.706;2023-03-01T09:26:08;12.57;;;8.10;;
2257;SDS011;1136;51.574;7.706;2023-03-01T09:28:36;13.43;;;8.00;;
2257;SDS011;1136;51.574;7.706;2023-03-01T09:31:03;8.23;;;7.50;;
2257;SDS011;1136;51.574;7.706;2023-03-01T09:33:31;9.93;;;8.10;;
2257;SDS011;1136;51.574;7.706;2023-03-01T09:36:06;9.03;;;8.23;;
2257;SDS011;1136;51.574;7.706;2023-03-01T09:38:34;8.87;;;8.07;;
2257;SDS011;1136;51.574;7.706;2023-03-01T09:41:01;9.17;;;7.73;;
2257;SDS011;1136;51.574;7.706;2023-03-01T09:43:37;9.67;;;7.80;;
2257;SDS011;1136;51.574;7.706;2023-03-01T09:46:12;8.50;;;7.50;;
2257;SDS011;1136;51.574;7.706;2023-03-01T09:48:44;8.87;;;7.97;;
2257;SDS011;1136;51.574;7.706;2023-03-01T09:51:21;9.00;;;7.90;;
2257;SDS011;1136;51.574;7.706;2023-03-01T09:53:52;8.27;;;7.27;;
2257;SDS011;1136;51.574;7.706;2023-03-01T09:56:22;10.10;;;7.67;;
2257;SDS011;1136;51.574;7.706;2023-03-01T10:01:54;7.13;;;6.47;;
2257;SDS011;1136;51.574;7.706;2023-03-01T10:07:00;8.43;;;7.50;;
2257;SDS011;1136;51.574;7.706;2023-03-01T10:10:02;7.07;;;6.50;;
2257;SDS011;1136;51.574;7.706;2023-03-01T10:12:35;7.80;;;7.10;;
2257;SDS011;1136;51.574;7.706;2023-03-01T10:21:00;8.20;;;7.50;;
2257;SDS011;1136;51.574;7.706;2023-03-01T10:23:43;6.90;;;6.20;;
2257;SDS011;1136;51.574;7.706;2023-03-01T10:31:20;8.00;;;7.30;;
2257;SDS011;1136;51.574;7.706;2023-03-01T10:33:55;7.93;;;7.33;;
2257;SDS011;1136;51.574;7.706;2023-03-01T10:36:23;8.47;;;7.73;;
2257;SDS011;1136;51.574;7.706;2023-03-01T10:38:52;8.30;;;7.50;;
2257;SDS011;1136;51.574;7.706;2023-03-01T10:41:20;8.20;;;7.50;;
2257;SDS011;1136;51.574;7.706;2023-03-01T10:43:57;8.10;;;7.40;;
2257;SDS011;1136;51.574;7.706;2023-03-01T10:49:15;8.83;;;8.03;;
2257;SDS011;1136;51.574;7.706;2023-03-01T10:51:51;9.00;;;7.87;;
2257;SDS011;1136;51.574;7.706;2023-03-01T10:54:22;7.43;;;6.83;;
2257;SDS011;1136;51.574;7.706;2023-03-01T10:56:53;8.67;;;7.97;;
2257;SDS011;1136;51.574;7.706;2023-03-01T11:07:27;9.40;;;8.07;;
2257;SDS011;1136;51.574;7.706;2023-03-01T11:09:57;8.70;;;7.80;;
2257;SDS011;1136;51.574;7.706;2023-03-01T11:12:23;7.23;;;6.57;;
2257;SDS011;1136;51.574;7.706;2023-03-01T11:14:51;8.47;;;7.67;;
2257;SDS011;1136;51.574;7.706;2023-03-01T11:17:25;8.37;;;7.57;;
2257;SDS011;1136;51.574;7.706;2023-03-01T11:20:05;8.57;;;7.87;;
2257;SDS011;1136;51.574;7.706;2023-03-01T11:22:56;8.97;;;8.10;;
2257;SDS011;1136;51.574;7.706;2023-03-01T11:25:29;7.10;;;6.50;;
2257;SDS011;1136;51.574;7.706;2023-03-01T11:27:59;7.70;;;6.93;;
2257;SDS011;1136;51.574;7.706;2023-03-01T11:30:50;9.03;;;8.20;;
2257;SDS011;1136;51.574;7.706;2023-03-01T11:39:58;8.50;;;7.80;;
2257;SDS011;1136;51.574;7.706;2023-03-01T11:42:05;8.40;;;7.60;;
2257;SDS011;1136;51.574;7.706;2023-03-01T11:44:44;9.10;;;7.90;;
2257;SDS011;1136;51.574;7.706;2023-03-01T11:55:30;9.00;;;8.10;;
2257;SDS011;1136;51.574;7.706;2023-03-01T11:58:18;8.43;;;7.73;;
2257;SDS011;1136;51.574;7.706;2023-03-01T12:00:57;7.80;;;7.10;;
2257;SDS011;1136;51.574;7.706;2023-03-01T12:03:33;12.00;;;8.47;;
2257;SDS011;1136;51.574;7.706;2023-03-01T12:06:14;9.30;;;8.40;;
2257;SDS011;1136;51.574;7.706;2023-03-01T12:29:01;10.00;;;9.00;;
2257;SDS011;1136;51.574;7.706;2023-03-01T12:51:18;8.77;;;7.97;;
2257;SDS011;1136;51.574;7.706;2023-03-01T12:53:49;9.23;;;8.43;;
2257;SDS011;1136;51.574;7.706;2023-03-01T12:56:18;12.60;;;8.70;;
2257;SDS011;1136;51.574;7.706;2023-03-01T13:04:24;8.47;;;7.60;;
2257;SDS011;1136;51.574;7.706;2023-03-01T13:23:01;7.33;;;6.63;;
2257;SDS011;1136;51.574;7.706;2023-03-01T13:25:30;9.00;;;7.63;;
2257;SDS011;1136;51.574;7.706;2023-03-01T13:31:02;8.33;;;7.03;;
2257;SDS011;1136;51.574;7.706;2023-03-01T13:35:57;9.13;;;6.30;;
2257;SDS011;1136;51.574;7.706;2023-03-01T13:44:52;11.47;;;8.47;;
2257;SDS011;1136;51.574;7.706;2023-03-01T13:52:29;8.17;;;7.27;;
2257;SDS011;1136;51.574;7.706;2023-03-01T13:54:59;8.63;;;7.73;;
2257;SDS011;1136;51.574;7.706;2023-03-01T13:57:30;9.23;;;8.35;;
2257;SDS011;1136;51.574;7.706;2023-03-01T14:00:02;7.40;;;6.67;;
2257;SDS011;1136;51.574;7.706;2023-03-01T14:02:31;6.83;;;6.23;;
2257;SDS011;1136;51.574;7.706;2023-03-01T14:04:58;6.93;;;6.33;;
2257;SDS011;1136;51.574;7.706;2023-03-01T14:07:26;10.33;;;7.17;;
2257;SDS011;1136;51.574;7.706;2023-03-01T14:10:02;8.70;;;6.60;;
2257;SDS011;1136;51.574;7.706;2023-03-01T14:15:36;7.43;;;6.70;;
2257;SDS011;1136;51.574;7.706;2023-03-01T14:18:19;6.70;;;6.10;;
2257;SDS011;1136;51.574;7.706;2023-03-01T14:20:53;8.93;;;7.57;;
2257;SDS011;1136;51.574;7.706;2023-03-01T14:23:21;11.60;;;8.10;;
2257;SDS011;1136;51.574;7.706;2023-03-01T14:25:58;8.17;;;7.23;;
2257;SDS011;1136;51.574;7.706;2023-03-01T14:28:26;8.73;;;6.33;;
2257;SDS011;1136;51.574;7.706;2023-03-01T14:30:55;7.17;;;6.47;;
2257;SDS011;1136;51.574;7.706;2023-03-01T14:33:28;7.10;;;6.33;;
2257;SDS011;1136;51.574;7.706;2023-03-01T14:36:04;6.40;;;5.87;;
2257;SDS011;1136;51.574;7.706;2023-03-01T14:38:42;8.60;;;7.17;;
2257;SDS011;1136;51.574;7.706;2023-03-01T14:41:14;8.70;;;7.00;;
2257;SDS011;1136;51.574;7.706;2023-03-01T14:43:44;7.83;;;6.70;;
2257;SDS011;1136;51.574;7.706;2023-03-01T14:46:35;8.87;;;6.83;;
2257;SDS011;1136;51.574;7.706;2023-03-01T14:49:14;11.17;;;7.53;;
2257;SDS011;1136;51.574;7.706;2023-03-01T14:51:54;6.60;;;6.00;;
2257;SDS011;1136;51.574;7.706;2023-03-01T14:54:42;7.73;;;6.93;;
2257;SDS011;1136;51.574;7.706;2023-03-01T14:57:17;8.00;;;6.80;;
2257;SDS011;1136;51.574;7.706;2023-03-01T14:59:51;6.87;;;6.13;;
2257;SDS011;1136;51.574;7.706;2023-03-01T15:02:21;12.20;;;7.03;;
2257;SDS011;1136;51.574;7.706;2023-03-01T15:04:51;7.60;;;6.50;;
2257;SDS011;1136;51.574;7.706;2023-03-01T15:07:19;10.13;;;7.50;;
2257;SDS011;1136;51.574;7.706;2023-03-01T15:09:46;7.40;;;6.60;;
2257;SDS011;1136;51.574;7.706;2023-03-01T15:14:56;6.90;;;6.30;;
2257;SDS011;1136;51.574;7.706;2023-03-01T15:17:33;7.53;;;6.70;;
2257;SDS011;1136;51.574;7.706;2023-03-01T15:20:03;6.97;;;6.27;;
2257;SDS011;1136;51.574;7.706;2023-03-01T15:22:32;6.97;;;6.20;;
2257;SDS011;1136;51.574;7.706;2023-03-01T15:24:59;6.20;;;5.60;;
2257;SDS011;1136;51.574;7.706;2023-03-01T15:27:26;7.27;;;6.50;;
2257;SDS011;1136;51.574;7.706;2023-03-01T15:29:54;6.37;;;5.73;;
2257;SDS011;1136;51.574;7.706;2023-03-01T15:35:01;8.37;;;6.17;;
2257;SDS011;1136;51.574;7.706;2023-03-01T15:37:48;6.17;;;5.57;;
2257;SDS011;1136;51.574;7.706;2023-03-01T15:42:59;7.80;;;6.80;;
2257;SDS011;1136;51.574;7.706;2023-03-01T15:45:28;6.87;;;6.10;;
2257;SDS011;1136;51.574;7.706;2023-03-01T15:47:56;6.80;;;6.10;;
2257;SDS011;1136;51.574;7.706;2023-03-01T15:50:28;9.80;;;6.87;;
2257;SDS011;1136;51.574;7.706;2023-03-01T15:52:56;8.40;;;6.73;;
2257;SDS011;1136;51.574;7.706;2023-03-01T15:55:26;7.53;;;6.03;;
2257;SDS011;1136;51.574;7.706;2023-03-01T15:58:00;9.50;;;6.87;;
2257;SDS011;1136;51.574;7.706;2023-03-01T16:00:31;6.60;;;6.00;;
2257;SDS011;1136;51.574;7.706;2023-03-01T16:02:57;8.67;;;6.53;;
2257;SDS011;1136;51.574;7.706;2023-03-01T16:05:26;6.80;;;6.20;;
2257;SDS011;1136;51.574;7.706;2023-03-01T16:07:54;10.23;;;6.53;;
2257;SDS011;1136;51.574;7.706;2023-03-01T16:10:21;10.10;;;7.33;;
2257;SDS011;1136;51.574;7.706;2023-03-01T16:12:49;7.17;;;6.17;;
2257;SDS011;1136;51.574;7.706;2023-03-01T16:15:20;7.17;;;6.07;;
2257;SDS011;1136;51.574;7.706;2023-03-01T16:17:47;5.93;;;5.33;;
2257;SDS011;1136;51.574;7.706;2023-03-01T16:20:14;6.23;;;5.63;;
2257;SDS011;1136;51.574;7.706;2023-03-01T16:22:53;6.97;;;6.33;;
2257;SDS011;1136;51.574;7.706;2023-03-01T16:25:20;8.30;;;5.97;;
2257;SDS011;1136;51.574;7.706;2023-03-01T16:27:50;6.20;;;5.60;;
2257;SDS011;1136;51.574;7.706;2023-03-01T16:30:18;8.80;;;5.60;;
2257;SDS011;1136;51.574;7.706;2023-03-01T16:32:46;7.37;;;5.10;;
2257;SDS011;1136;51.574;7.706;2023-03-01T16:35:14;7.00;;;5.47;;
2257;SDS011;1136;51.574;7.706;2023-03-01T16:37:43;6.70;;;5.73;;
2257;SDS011;1136;51.574;7.706;2023-03-01T16:42:43;8.00;;;5.80;;
2257;SDS011;1136;51.574;7.706;2023-03-01T16:45:10;9.07;;;6.27;;
2257;SDS011;1136;51.574;7.706;2023-03-01T16:47:49;14.10;;;7.80;;
2257;SDS011;1136;51.574;7.706;2023-03-01T16:50:16;6.63;;;5.83;;
2257;SDS011;1136;51.574;7.706;2023-03-01T16:52:42;7.83;;;6.43;;
2257;SDS011;1136;51.574;7.706;2023-03-01T16:55:09;6.17;;;5.67;;
2257;SDS011;1136;51.574;7.706;2023-03-01T16:57:37;5.47;;;4.97;;
2257;SDS011;1136;51.574;7.706;2023-03-01T17:00:04;9.30;;;5.83;;
2257;SDS011;1136;51.574;7.706;2023-03-01T17:02:34;9.03;;;5.77;;
2257;SDS011;1136;51.574;7.706;2023-03-01T17:05:02;6.83;;;4.90;;
2257;SDS011;1136;51.574;7.706;2023-03-01T17:07:32;6.40;;;5.27;;
2257;SDS011;1136;51.574;7.706;2023-03-01T17:10:03;6.60;;;6.00;;
2257;SDS011;1136;51.574;7.706;2023-03-01T17:12:32;5.90;;;5.30;;
2257;SDS011;1136;51.574;7.706;2023-03-01T17:15:00;6.20;;;5.60;;
2257;SDS011;1136;51.574;7.706;2023-03-01T17:17:26;9.40;;;5.30;;
2257;SDS011;1136;51.574;7.706;2023-03-01T17:19:53;8.30;;;5.83;;
2257;SDS011;1136;51.574;7.706;2023-03-01T17:22:20;6.27;;;5.57;;
2257;SDS011;1136;51.574;7.706;2023-03-01T17:24:46;8.60;;;6.53;;
2257;SDS011;1136;51.574;7.706;2023-03-01T17:27:13;8.00;;;7.20;;
2257;SDS011;1136;51.574;7.706;2023-03-01T17:29:41;13.40;;;7.60;;
2257;SDS011;1136;51.574;7.706;2023-03-01T17:32:08;10.97;;;9.57;;
2257;SDS011;1136;51.574;7.706;2023-03-01T17:34:35;11.00;;;7.67;;
2257;SDS011;1136;51.574;7.706;2023-03-01T17:37:02;12.13;;;7.50;;
2257;SDS011;1136;51.574;7.706;2023-03-01T17:39:29;10.70;;;7.90;;
2257;SDS011;1136;51.574;7.706;2023-03-01T17:42:02;13.40;;;8.53;;
2257;SDS011;1136;51.574;7.706;2023-03-01T17:44:31;12.03;;;8.60;;
2257;SDS011;1136;51.574;7.706;2023-03-01T17:47:00;10.53;;;8.40;;